Alpha, California Weather observations

Data are for observation ending at time listed.
 Day   Time    Ave.   Ave.  Ave.  Vector   Max.   Stn.    Total    Solar   Ave.   Snow 
  of    of     Air    Rel.  Wind   Wind    Wind   Baro.  Precip.   Rad.    Soil   Depth
Year   Day     Temp.  Hum.  Speed  Dir.    Gust   Pres.                    Temp.       
2016   (PST)    F      %     mph   deg.    mph     mb.     in.     W/m2     F      in. 
---------------------------------------------------------------------------------------  
 148   20:40   44.4    71    2.0    80      3.0   784.9    0.00       0    999.0    9.8
 148   20:50   44.4    71    2.4    95      3.6   785.0    0.00       0    999.0    9.9
 148   21:00   44.6    70    2.9   102      4.3   784.9    0.00       0    999.0   10.6
 148   21:10   44.8    68    3.5   108      4.7   785.0    0.00       0    999.0   10.6
 148   21:20   45.2    66    3.2    98      4.3   785.0    0.00       0    999.0   11.1
 148   21:30   45.2    66    3.2    97      5.6   784.9    0.00       0    999.0   11.5
 148   21:40   45.9    61    2.8    93      5.1   784.8    0.00       0    999.0   11.8
 148   21:50   46.2    52    1.0    83      2.0   784.7    0.00       0    999.0   27.2
 148   22:00   46.2    44    0.8    71      1.4   784.7    0.00       0    999.0   27.0
 148   22:10   46.8    32    0.2    24      1.4   784.6    0.00       0    999.0   13.3
 148   22:20   46.6    29    0.0     0      0.0   784.6    0.00       0    999.0   13.4
 148   22:30   46.3    29    0.5   294      1.8   784.6    0.00       0    999.0   13.6
 148   22:40   46.7    30    0.9   303      1.5   784.5    0.00       0    999.0   14.0
 148   22:50   46.4    30    0.0     0      0.0   784.4    0.00       0    999.0   14.2
 148   23:00   46.0    28    0.0   309      0.8   784.4    0.00       0    999.0   14.0
 148   23:10   45.5    46    2.7   106      4.7   784.4    0.00       0    999.0   72.8
 148   23:20   45.7    53    3.0   105      4.6   784.3    0.00       0    999.0   12.4
 148   23:30   46.1    48    2.3    97      4.3   784.3    0.00       0    999.0   12.6
 148   23:40   46.4    40    1.6    86      2.5   784.2    0.00       0    999.0   58.4
 148   23:50   46.6    30    1.1    92      1.7   784.1    0.00       0    999.0   42.3
 149    0:00   47.0    25    0.8   102      1.7   784.1    0.00       0    999.0   13.6
 149    0:10   46.9    26    0.8   157      1.7   784.0    0.00       0    999.0   13.8
 149    0:20   46.9    32    1.9   144      3.4   784.0    0.00       0    999.0   14.0
 149    0:30   46.3    36    2.5   131      3.9   783.9    0.00       0    999.0   13.9
 149    0:40   46.2    32    1.6   146      4.4   783.9    0.00       0    999.0   13.5
 149    0:50   46.3    28    2.8   142      5.3   783.8    0.00       0    999.0   13.6
 149    1:00   46.7    23    4.6   124      9.9   783.7    0.00       0    999.0   13.5
 149    1:10   47.1    22    4.0   113      6.9   783.6    0.00       0    999.0   13.8
 149    1:20   46.5    23    4.4   115      7.9   783.5    0.00       0    999.0   13.9
 149    1:30   46.2    24    4.8   110      7.3   783.4    0.00       0    999.0   13.6
 149    1:40   46.2    24    4.5   116      7.4   783.3    0.00       0    999.0   13.6
 149    1:50   46.0    27    3.9   111     12.1   783.2    0.00       0    999.0   13.6
 149    2:00   45.7    32    5.6   110     11.2   783.1    0.00       0    999.0   14.2
 149    2:10   45.5    37    6.7   107     12.3   783.0    0.00       0    999.0   70.6
 149    2:20   45.3    39    6.8   118     10.9   783.0    0.00       0    999.0   28.7
 149    2:30   45.0    42    6.3   115      9.8   782.9    0.00       0    999.0  116.8
 149    2:40   44.6    45    6.8   105     12.0   782.9    0.00       0    999.0  132.2
 149    2:50   44.7    47    7.1   108     11.6   782.8    0.00       0    999.0   71.9
 149    3:00   44.6    49    7.7   109     11.9   782.8    0.00       0    999.0   13.3
 149    3:10   44.7    50    7.8   111     11.8   782.8    0.00       0    999.0   13.2
 149    3:20   44.2    53    6.8   116     11.8   782.8    0.00       0    999.0   13.2
 149    3:30   43.8    56    7.2   104     14.2   782.9    0.00       0    999.0   13.1
 149    3:40   43.4    58    7.4   105     11.9   782.9    0.00       0    999.0   13.1
 149    3:50   43.6    57    7.1   104     11.8   782.9    0.00       0    999.0   12.9
 149    4:00   43.8    56    7.0   106     12.2   782.9    0.00       0    999.0   13.2
 149    4:10   43.8    54    6.1   111     10.0   782.9    0.00       0    999.0   13.1
 149    4:20   44.1    53    6.3   111      9.8   782.9    0.00       0    999.0   13.5
 149    4:30   44.1    52    6.3   111      9.5   782.9    0.00       0    999.0   13.3
 149    4:40   44.3    52    6.8   110     11.0   782.9    0.00       2    999.0   13.6
 149    4:50   44.5    51    6.7   107     11.0   782.9    0.00       4    999.0   13.4
 149    5:00   44.4    51    6.0   105     10.0   783.0    0.00       9    999.0   13.6
 149    5:10   44.6    50    5.9   108      9.6   783.0    0.00      15    999.0   13.4
 149    5:20   44.9    48    6.4   106     10.7   783.1    0.00      23    999.0   13.7
 149    5:30   45.2    47    6.2   108      9.4   783.2    0.00      30    999.0   13.6
 149    5:40   45.4    47    5.9   107      8.9   783.2    0.00      40    999.0   43.2
 149    5:50   45.6    46    5.8   110      9.9   783.3    0.00      57    999.0  157.8
 149    6:00   46.0    46    5.8   109     10.7   783.4    0.00      70    999.0  158.9
 149    6:10   46.3    45    5.3   110      9.5   783.4    0.00      73    999.0  161.6
 149    6:20   46.8    45    5.6   111      9.9   783.5    0.00     107    999.0  162.1
 149    6:30   47.2    44    5.6   109      8.5   783.6    0.00      77    999.0  161.9
 149    6:40   47.3    45    5.4   109      9.4   783.7    0.00      82    999.0  161.9
 149    6:50   47.5    45    5.2   115      8.3   783.8    0.00      90    999.0  161.9
 149    7:00   48.1    46    5.0   117      8.5   783.8    0.00     125    999.0  162.1
 149    7:10   48.4    44    5.6   121     10.3   783.8    0.00     203    999.0  160.9
 149    7:20   49.3    43    4.9   126      9.3   783.9    0.00     235    999.0   57.3
 149    7:30   49.2    43    4.2   140      9.5   784.0    0.00     253    999.0   84.5
 149    7:40  999.0   999  999.0   999    999.0   999.0   999.00     999    999.0  999.0
 149    7:50  999.0   999  999.0   999    999.0   999.0   999.00     999    999.0  999.0
 149    8:00  999.0   999  999.0   999    999.0   999.0   999.00     999    999.0  999.0
 149    8:10  999.0   999  999.0   999    999.0   999.0   999.00     999    999.0  999.0
 149    8:20  999.0   999  999.0   999    999.0   999.0   999.00     999    999.0  999.0
 149    8:30  999.0   999  999.0   999    999.0   999.0   999.00     999    999.0  999.0
 149    8:40  999.0   999  999.0   999    999.0   999.0   999.00     999    999.0  999.0
 149    8:50  999.0   999  999.0   999    999.0   999.0   999.00     999    999.0  999.0
 149    9:00  999.0   999  999.0   999    999.0   999.0   999.00     999    999.0  999.0
 149    9:10  999.0   999  999.0   999    999.0   999.0   999.00     999    999.0  999.0
 149    9:20  999.0   999  999.0   999    999.0   999.0   999.00     999    999.0  999.0
 149    9:30  999.0   999  999.0   999    999.0   999.0   999.00     999    999.0  999.0
 149    9:40  999.0   999  999.0   999    999.0   999.0   999.00     999    999.0  999.0
 149    9:50  999.0   999  999.0   999    999.0   999.0   999.00     999    999.0  999.0
 149   10:00  999.0   999  999.0   999    999.0   999.0   999.00     999    999.0  999.0
 149   10:10  999.0   999  999.0   999    999.0   999.0   999.00     999    999.0  999.0
 149   10:20  999.0   999  999.0   999    999.0   999.0   999.00     999    999.0  999.0
 149   10:30  999.0   999  999.0   999    999.0   999.0   999.00     999    999.0  999.0
 149   10:40  999.0   999  999.0   999    999.0   999.0   999.00     999    999.0  999.0
 149   10:50  999.0   999  999.0   999    999.0   999.0   999.00     999    999.0  999.0
 149   11:00  999.0   999  999.0   999    999.0   999.0   999.00     999    999.0  999.0
 149   11:10  999.0   999  999.0   999    999.0   999.0   999.00     999    999.0  999.0
 149   11:20  999.0   999  999.0   999    999.0   999.0   999.00     999    999.0  999.0
 149   11:30  999.0   999  999.0   999    999.0   999.0   999.00     999    999.0  999.0
 149   11:40  999.0   999  999.0   999    999.0   999.0   999.00     999    999.0  999.0
 149   11:50  999.0   999  999.0   999    999.0   999.0   999.00     999    999.0  999.0
 149   12:00  999.0   999  999.0   999    999.0   999.0   999.00     999    999.0  999.0
 149   12:10  999.0   999  999.0   999    999.0   999.0   999.00     999    999.0  999.0
 149   12:20  999.0   999  999.0   999    999.0   999.0   999.00     999    999.0  999.0
 149   12:30  999.0   999  999.0   999    999.0   999.0   999.00     999    999.0  999.0
 149   12:40  999.0   999  999.0   999    999.0   999.0   999.00     999    999.0  999.0
 149   12:50  999.0   999  999.0   999    999.0   999.0   999.00     999    999.0  999.0
 149   13:00  999.0   999  999.0   999    999.0   999.0   999.00     999    999.0  999.0
 149   13:10  999.0   999  999.0   999    999.0   999.0   999.00     999    999.0  999.0
 149   13:20  999.0   999  999.0   999    999.0   999.0   999.00     999    999.0  999.0
 149   13:30  999.0   999  999.0   999    999.0   999.0   999.00     999    999.0  999.0
 149   13:40  999.0   999  999.0   999    999.0   999.0   999.00     999    999.0  999.0
 149   13:50  999.0   999  999.0   999    999.0   999.0   999.00     999    999.0  999.0
 149   14:00  999.0   999  999.0   999    999.0   999.0   999.00     999    999.0  999.0
 149   14:10  999.0   999  999.0   999    999.0   999.0   999.00     999    999.0  999.0
 149   14:20  999.0   999  999.0   999    999.0   999.0   999.00     999    999.0  999.0
 149   14:30  999.0   999  999.0   999    999.0   999.0   999.00     999    999.0  999.0
 149   14:40  999.0   999  999.0   999    999.0   999.0   999.00     999    999.0  999.0
 149   14:50  999.0   999  999.0   999    999.0   999.0   999.00     999    999.0  999.0
 149   15:00  999.0   999  999.0   999    999.0   999.0   999.00     999    999.0  999.0
 149   15:10  999.0   999  999.0   999    999.0   999.0   999.00     999    999.0  999.0
 149   15:20  999.0   999  999.0   999    999.0   999.0   999.00     999    999.0  999.0
 149   15:30  999.0   999  999.0   999    999.0   999.0   999.00     999    999.0  999.0
 149   15:40  999.0   999  999.0   999    999.0   999.0   999.00     999    999.0  999.0
 149   15:50  999.0   999  999.0   999    999.0   999.0   999.00     999    999.0  999.0
 149   16:00  999.0   999  999.0   999    999.0   999.0   999.00     999    999.0  999.0
 149   16:10  999.0   999  999.0   999    999.0   999.0   999.00     999    999.0  999.0
 149   16:20  999.0   999  999.0   999    999.0   999.0   999.00     999    999.0  999.0
 149   16:30  999.0   999  999.0   999    999.0   999.0   999.00     999    999.0  999.0
 149   16:40  999.0   999  999.0   999    999.0   999.0   999.00     999    999.0  999.0
 149   16:50  999.0   999  999.0   999    999.0   999.0   999.00     999    999.0  999.0
 149   17:00  999.0   999  999.0   999    999.0   999.0   999.00     999    999.0  999.0
 149   17:10  999.0   999  999.0   999    999.0   999.0   999.00     999    999.0  999.0
 149   17:20  999.0   999  999.0   999    999.0   999.0   999.00     999    999.0  999.0
 149   17:30  999.0   999  999.0   999    999.0   999.0   999.00     999    999.0  999.0
 149   17:40  999.0   999  999.0   999    999.0   999.0   999.00     999    999.0  999.0
 149   17:50   56.9    44    1.4   313      4.2   785.2    0.00     193    999.0   11.1
 149   18:00   55.8    46    1.1   306      4.2   785.3    0.00     148    999.0   10.9
 149   18:10   54.4    48    2.2   322      5.1   785.3    0.00     118    999.0   71.6
 149   18:20   53.6    51    1.5   317      4.8   785.5    0.00      64    999.0  161.8
 149   18:30   53.2    51    1.6   314      4.5   785.5    0.00      48    999.0  162.0
 149   18:40   52.4    52    1.3   330      3.9   785.6    0.00      40    999.0  130.5
 149   18:50   51.8    53    1.5   326      2.9   785.6    0.00      32    999.0  101.2
 149   19:00  999.0   999  999.0   999    999.0   999.0   999.00     999    999.0  999.0
 149   19:10  999.0   999  999.0   999    999.0   999.0   999.00     999    999.0  999.0
 149   19:20  999.0   999  999.0   999    999.0   999.0   999.00     999    999.0  999.0
 149   19:30  999.0   999  999.0   999    999.0   999.0   999.00     999    999.0  999.0
 149   19:40   49.4    56    1.4   338      1.9   785.9    0.00       0    999.0   11.6
 149   19:50   49.2    56    0.9   348      1.6   785.9    0.00       0    999.0   12.0
 149   20:00   49.0    56    0.6   351      1.7   785.9    0.00       0    999.0   11.6
 149   20:10   48.9    56    0.7   350      1.7   785.9    0.00       0    999.0   11.7
 149   20:20   49.2    56    0.9    63      2.9   785.9    0.00       0    999.0   11.6
 149   20:30   49.1    56    2.4   110      3.3   786.0    0.00       0    999.0   11.4

Return to Alpha graphs page.


Western Regional Climate Center,wrcc@dri.edu